<?xml version='1.0' encoding='UTF-8'?>
<gpx xmlns="http://www.topografix.com/GPX/1/1" creator="www.balnam.be" version="1.1" xmlns:xsi="http://www.w3.org/2001/XMLSchema-instance" xsi:schemaLocation="http://www.topografix.com/GPX/1/1 http://www.topografix.com/GPX/1/1/gpx.xsd">
<trk>
<name>hbcrq46</name>
<cmt>q</cmt>
<desc>Ronquières Sentier n°46 </desc>
<link href="https://chemins.be/ronquieres/sentier/46"/><trkseg>
<trkpt lat="50.606619" lon="4.223334"><time>2026-05-03T06:43:44Z</time></trkpt>
<trkpt lat="50.606643" lon="4.222427"><time>2026-05-03T06:53:44Z</time></trkpt>
<trkpt lat="50.606711" lon="4.221189"><time>2026-05-03T07:03:44Z</time></trkpt>
<trkpt lat="50.606718" lon="4.220370"><time>2026-05-03T07:13:44Z</time></trkpt>
<trkpt lat="50.606727" lon="4.219876"><time>2026-05-03T07:23:44Z</time></trkpt>
<trkpt lat="50.606790" lon="4.219748"><time>2026-05-03T07:33:44Z</time></trkpt>
<trkpt lat="50.606942" lon="4.219578"><time>2026-05-03T07:43:44Z</time></trkpt>
<trkpt lat="50.606661" lon="4.217290"><time>2026-05-03T07:53:44Z</time></trkpt>
<trkpt lat="50.606489" lon="4.216528"><time>2026-05-03T08:03:44Z</time></trkpt>
<trkpt lat="50.606075" lon="4.216360"><time>2026-05-03T08:13:44Z</time></trkpt>
</trkseg></trk>
<trk>
<name>hbcrq46</name>
<cmt>d</cmt>
<desc>Ronquières Sentier n°46 </desc>
<link href="https://chemins.be/ronquieres/sentier/46"/><trkseg>
<trkpt lat="50.606075" lon="4.216360"><time>2026-05-03T08:13:44Z</time></trkpt>
<trkpt lat="50.605769" lon="4.216375"><time>2026-05-03T08:23:44Z</time></trkpt>
</trkseg></trk>
<trk>
<name>hbcrq46</name>
<cmt>v</cmt>
<desc>Ronquières Sentier n°46 </desc>
<link href="https://chemins.be/ronquieres/sentier/46"/><trkseg>
<trkpt lat="50.605769" lon="4.216375"><time>2026-05-03T08:23:44Z</time></trkpt>
<trkpt lat="50.605077" lon="4.216490"><time>2026-05-03T08:33:44Z</time></trkpt>
<trkpt lat="50.604465" lon="4.216026"><time>2026-05-03T08:43:44Z</time></trkpt>
<trkpt lat="50.603916" lon="4.215378"><time>2026-05-03T08:53:44Z</time></trkpt>
<trkpt lat="50.603618" lon="4.214475"><time>2026-05-03T09:03:44Z</time></trkpt>
<trkpt lat="50.603858" lon="4.212454"><time>2026-05-03T09:13:44Z</time></trkpt>
<trkpt lat="50.603912" lon="4.212129"><time>2026-05-03T09:23:44Z</time></trkpt>
<trkpt lat="50.603570" lon="4.211650"><time>2026-05-03T09:33:44Z</time></trkpt>
<trkpt lat="50.603173" lon="4.211227"><time>2026-05-03T09:43:44Z</time></trkpt>
<trkpt lat="50.602472" lon="4.211018"><time>2026-05-03T09:53:44Z</time></trkpt>
<trkpt lat="50.602175" lon="4.210680"><time>2026-05-03T10:03:44Z</time></trkpt>
<trkpt lat="50.601491" lon="4.210399"><time>2026-05-03T10:13:44Z</time></trkpt>
</trkseg></trk>
<trk>
<name>hbcrq46</name>
<cmt>q</cmt>
<desc>Ronquières Sentier n°46 </desc>
<link href="https://chemins.be/ronquieres/sentier/46"/><trkseg>
<trkpt lat="50.601491" lon="4.210399"><time>2026-05-03T10:13:44Z</time></trkpt>
<trkpt lat="50.600502" lon="4.209979"><time>2026-05-03T10:23:44Z</time></trkpt>
<trkpt lat="50.596613" lon="4.205981"><time>2026-05-03T10:33:44Z</time></trkpt>
<trkpt lat="50.595236" lon="4.205336"><time>2026-05-03T10:43:44Z</time></trkpt>
</trkseg>
</trk>
</gpx>